Terminal Aerodrome Forecast
Issued by NWS Tulsa, OK

Home | Current Version | Previous Version | Text Only | Print | Product List | Glossary On
Versions: 1 2 3 4 5 6 7 8 9 10 11 12 13 14 15 16 17 18 19 20 21 22 23 24 25 26 27 28 29
000
FTPQ31 PGUM 032331
TAFGUM
TAF

TAF
PTSA 032331Z 0400/0424 06010KT 6SM -RA SCT012 BKN040 OVC100
      TEMPO 0400/0402 VRB10G18KT 2SM +SHRA BKN012 OVC040
     FM040200 VRB06KT P6SM VCSH SCT015 BKN060 BKN120=

USA.gov is the U.S. government's official web portal to all federal, state and local government web resources and services.